Time;durP1;ratioP1;P1;durP2;ratioP2;P2;SDS_P1;SDS_P2;PMS_P1;PMS_P2;Temp;Humidity;BMP_temperature;BMP_pressure;BME280_temperature;BME280_humidity;BME280_pressure;Samples;Min_cycle;Max_cycle;Signal;HPM_P1;HPM_P2
2022/03/17 00:00:13;;;;;;;27.45;16.48;;;10.40;99.90;;;;;;5109560;27;20736;-84
2022/03/17 00:02:39;;;;;;;26.45;16.77;;;10.40;99.90;;;;;;5119687;27;20613;-86
2022/03/17 00:05:10;;;;;;;30.98;18.23;;;10.40;99.90;;;;;;5126040;27;20035;-86
2022/03/17 00:07:36;;;;;;;28.97;17.00;;;10.40;99.90;;;;;;5126144;27;20042;-87
2022/03/17 00:10:05;;;;;;;31.77;18.00;;;10.40;99.90;;;;;;5103600;27;20145;-84
2022/03/17 00:12:30;;;;;;;29.58;17.63;;;10.40;99.90;;;;;;5126878;27;20058;-84
2022/03/17 00:14:56;;;;;;;31.33;17.67;;;10.40;99.90;;;;;;5130122;27;20026;-85
2022/03/17 00:17:22;;;;;;;27.92;17.00;;;10.40;99.90;;;;;;5107931;27;20039;-84
2022/03/17 00:19:47;;;;;;;25.20;17.20;;;10.30;99.90;;;;;;5106100;27;20054;-84
2022/03/17 00:22:16;;;;;;;29.90;18.67;;;10.40;99.90;;;;;;5111560;27;20053;-83
2022/03/17 00:24:43;;;;;;;29.20;17.63;;;10.40;99.90;;;;;;5144599;27;20043;-85
2022/03/17 00:27:09;;;;;;;31.42;17.40;;;10.40;99.90;;;;;;5119955;27;20398;-85
2022/03/17 00:29:36;;;;;;;31.10;17.95;;;10.40;99.90;;;;;;5112222;27;20133;-84
2022/03/17 00:32:06;;;;;;;27.80;17.45;;;10.40;99.90;;;;;;5111983;27;20151;-85
2022/03/17 00:34:34;;;;;;;32.67;18.15;;;10.40;99.90;;;;;;5138552;27;20047;-84
2022/03/17 00:36:59;;;;;;;29.33;17.90;;;10.40;99.90;;;;;;5129024;27;20045;-85
2022/03/17 00:39:25;;;;;;;28.52;18.77;;;10.40;99.90;;;;;;5111941;27;20430;-85
2022/03/17 00:41:51;;;;;;;29.35;16.80;;;10.40;99.90;;;;;;5118455;27;20728;-85
2022/03/17 00:44:17;;;;;;;28.95;18.98;;;10.40;99.90;;;;;;5145595;27;20038;-87
2022/03/17 00:46:42;;;;;;;29.73;18.67;;;10.40;99.90;;;;;;5146509;27;20046;-85
2022/03/17 00:49:08;;;;;;;30.70;18.73;;;10.40;99.90;;;;;;5118023;27;20057;-84
2022/03/17 00:51:34;;;;;;;29.52;18.40;;;10.40;99.90;;;;;;5127922;27;20027;-85
2022/03/17 00:54:00;;;;;;;30.60;19.10;;;10.40;99.90;;;;;;5128945;27;20039;-85
2022/03/17 00:56:26;;;;;;;28.00;18.00;;;10.40;99.90;;;;;;5139731;27;20039;-84
2022/03/17 00:58:52;;;;;;;28.85;17.95;;;10.30;99.90;;;;;;5129077;27;20490;-83
2022/03/17 01:01:18;;;;;;;30.92;18.88;;;10.30;99.90;;;;;;5128436;27;20062;-86
2022/03/17 01:03:46;;;;;;;30.98;18.63;;;10.30;99.90;;;;;;5101001;27;20427;-86
2022/03/17 01:06:13;;;;;;;31.63;19.38;;;10.30;99.90;;;;;;5128201;27;20046;-85
2022/03/17 01:08:39;;;;;;;32.42;19.05;;;10.70;99.90;;;;;;5110910;27;20048;-85
2022/03/17 01:11:05;;;;;;;31.58;18.13;;;10.40;99.90;;;;;;5097649;27;20038;-84
2022/03/17 01:13:31;;;;;;;29.63;18.23;;;10.40;99.90;;;;;;5106178;27;20282;-85
2022/03/17 01:15:57;;;;;;;33.30;19.70;;;10.40;99.90;;;;;;5106014;27;21767;-83
2022/03/17 01:18:23;;;;;;;32.50;18.85;;;10.40;99.90;;;;;;5101170;27;20063;-83
2022/03/17 01:20:50;;;;;;;29.88;19.20;;;10.40;99.90;;;;;;5116305;27;20491;-85
2022/03/17 01:23:17;;;;;;;28.83;18.08;;;10.40;99.90;;;;;;5120128;27;20055;-85
2022/03/17 01:25:43;;;;;;;27.52;18.92;;;10.70;99.90;;;;;;5125030;27;20121;-84
2022/03/17 01:28:09;;;;;;;30.20;19.05;;;10.40;99.90;;;;;;5104226;27;20487;-86
2022/03/17 01:30:35;;;;;;;33.15;19.45;;;10.40;99.90;;;;;;5103982;27;20046;-84
2022/03/17 01:33:02;;;;;;;29.30;18.13;;;10.40;99.90;;;;;;5084425;27;20080;-84
2022/03/17 01:35:28;;;;;;;27.85;18.45;;;10.40;99.90;;;;;;5110240;27;20038;-85
2022/03/17 01:37:53;;;;;;;30.67;19.13;;;10.50;99.90;;;;;;5127173;27;20085;-84
2022/03/17 01:40:19;;;;;;;27.83;18.67;;;10.50;99.90;;;;;;5118577;27;20035;-84
2022/03/17 01:42:45;;;;;;;29.73;18.85;;;10.50;99.90;;;;;;5108753;27;20509;-86
2022/03/17 01:45:11;;;;;;;28.95;19.35;;;10.80;99.90;;;;;;5119885;27;20085;-84
2022/03/17 01:47:37;;;;;;;29.77;18.85;;;10.50;99.90;;;;;;5117428;27;20043;-86
2022/03/17 01:50:12;;;;;;;31.02;18.30;;;10.50;99.90;;;;;;5108947;27;20402;-87
2022/03/17 01:52:39;;;;;;;31.10;20.95;;;10.50;99.90;;;;;;5120483;27;20035;-86
2022/03/17 01:55:06;;;;;;;30.90;18.33;;;10.60;99.90;;;;;;5139713;27;20043;-83
2022/03/17 01:57:32;;;;;;;31.98;20.08;;;10.60;99.90;;;;;;5123431;27;20550;-87
2022/03/17 01:59:59;;;;;;;29.73;19.23;;;10.60;99.90;;;;;;5124493;27;20441;-87
2022/03/17 02:02:25;;;;;;;29.00;18.70;;;10.60;99.90;;;;;;5124453;27;20044;-86
2022/03/17 02:04:51;;;;;;;30.92;18.13;;;10.60;99.90;;;;;;5132578;27;20432;-87
2022/03/17 02:07:19;;;;;;;29.98;18.88;;;10.60;99.90;;;;;;5098293;27;20042;-85
2022/03/17 02:09:48;;;;;;;32.97;20.40;;;10.90;99.90;;;;;;5096082;27;21029;-85
2022/03/17 02:15:16;;;;;;;32.17;20.80;;;10.60;99.90;;;;;;5136975;27;20049;-86
2022/03/17 02:17:43;;;;;;;29.70;18.95;;;11.10;99.90;;;;;;5111818;27;20129;-85
2022/03/17 02:20:13;;;;;;;30.10;20.70;;;10.70;99.90;;;;;;5101154;27;20065;-87
2022/03/17 02:22:45;;;;;;;32.35;20.17;;;11.10;99.90;;;;;;5110394;27;20035;-86
2022/03/17 02:27:57;;;;;;;33.38;21.08;;;10.40;99.90;;;;;;5117011;27;20111;-86
2022/03/17 02:30:23;;;;;;;34.50;22.10;;;10.40;99.90;;;;;;5113103;27;20138;-87
2022/03/17 02:32:58;;;;;;;31.88;20.27;;;10.40;99.90;;;;;;5148691;27;20051;-87
2022/03/17 02:35:23;;;;;;;32.53;20.30;;;10.80;99.90;;;;;;5149093;27;20085;-85
2022/03/17 02:37:50;;;;;;;32.33;21.00;;;10.40;99.90;;;;;;5133127;27;20089;-86
2022/03/17 02:40:16;;;;;;;35.08;22.02;;;10.30;99.90;;;;;;5127721;27;20394;-88
2022/03/17 02:42:42;;;;;;;30.05;20.40;;;10.30;99.90;;;;;;5097592;27;20111;-88
2022/03/17 02:45:12;;;;;;;31.50;20.48;;;10.30;99.90;;;;;;5112278;27;20047;-86
2022/03/17 02:47:40;;;;;;;30.73;20.27;;;10.30;99.90;;;;;;5150584;27;21247;-85
2022/03/17 02:50:07;;;;;;;32.42;21.85;;;10.30;99.90;;;;;;5131117;27;20041;-87
2022/03/17 02:52:33;;;;;;;32.28;21.27;;;10.30;99.90;;;;;;5110913;27;20126;-86
2022/03/17 02:54:59;;;;;;;34.42;22.00;;;10.80;99.90;;;;;;5134273;27;20466;-86
2022/03/17 02:57:25;;;;;;;29.30;20.05;;;10.30;99.90;;;;;;5152235;27;20058;-86
2022/03/17 02:59:52;;;;;;;33.85;21.20;;;10.30;99.90;;;;;;5147603;27;20172;-87
2022/03/17 03:02:18;;;;;;;31.25;21.10;;;10.20;99.90;;;;;;5129722;27;20422;-87
2022/03/17 03:04:44;;;;;;;32.95;21.27;;;10.30;99.90;;;;;;5108994;27;20073;-86
2022/03/17 03:07:09;;;;;;;31.65;20.98;;;10.30;99.90;;;;;;5112673;27;20035;-85
2022/03/17 03:09:35;;;;;;;34.00;21.27;;;10.30;99.90;;;;;;5107937;27;20039;-86
2022/03/17 03:12:01;;;;;;;32.60;21.65;;;10.50;99.90;;;;;;5127613;27;20034;-86
2022/03/17 03:14:28;;;;;;;33.30;20.85;;;10.30;99.90;;;;;;5126776;27;20037;-87
2022/03/17 03:16:54;;;;;;;32.47;22.40;;;10.30;99.90;;;;;;5123055;27;20121;-85
2022/03/17 03:19:20;;;;;;;32.05;21.17;;;10.40;99.90;;;;;;5123788;27;20212;-86
2022/03/17 03:21:46;;;;;;;34.38;20.85;;;10.30;99.90;;;;;;5132691;27;20046;-87
2022/03/17 03:24:13;;;;;;;34.00;22.70;;;10.30;99.90;;;;;;5124949;27;20399;-84
2022/03/17 03:26:40;;;;;;;32.83;21.83;;;10.30;99.90;;;;;;5126227;27;20047;-86
2022/03/17 03:29:16;;;;;;;30.58;21.40;;;10.30;99.90;;;;;;5151408;27;20075;-87
2022/03/17 03:31:42;;;;;;;33.38;21.90;;;10.30;99.90;;;;;;5148425;27;20034;-85
2022/03/17 03:34:08;;;;;;;33.53;21.60;;;10.40;99.90;;;;;;5108078;27;20041;-86
2022/03/17 03:39:18;;;;;;;34.80;21.92;;;10.40;99.90;;;;;;5148711;27;20043;-86
2022/03/17 03:41:44;;;;;;;33.58;22.77;;;10.40;99.90;;;;;;5109944;27;20053;-86
2022/03/17 03:44:12;;;;;;;29.55;21.70;;;10.40;99.90;;;;;;5112130;27;20035;-86
2022/03/17 03:46:38;;;;;;;32.20;22.25;;;10.50;99.90;;;;;;5119779;27;20081;-89
2022/03/17 03:49:04;;;;;;;35.63;23.38;;;10.60;99.90;;;;;;5125311;27;20067;-86
2022/03/17 03:51:29;;;;;;;33.85;23.75;;;10.80;99.90;;;;;;5128504;27;20061;-84
2022/03/17 03:54:13;;;;;;;38.55;24.75;;;10.30;99.90;;;;;;5127254;27;20049;-86
2022/03/17 03:56:44;;;;;;;37.20;26.27;;;10.20;99.90;;;;;;5099931;27;20354;-86
2022/03/17 04:01:43;;;;;;;38.80;26.75;;;10.10;99.90;;;;;;5123209;27;20498;-86
2022/03/17 04:04:09;;;;;;;41.38;26.30;;;10.00;99.90;;;;;;5125572;27;20095;-87
2022/03/17 04:06:47;;;;;;;40.13;28.60;;;9.90;99.90;;;;;;5111538;27;20042;-86
2022/03/17 04:09:19;;;;;;;42.22;27.92;;;9.80;99.90;;;;;;5125781;27;20039;-86
2022/03/17 04:11:46;;;;;;;39.70;26.15;;;9.80;99.90;;;;;;5145354;27;20035;-87
2022/03/17 04:14:13;;;;;;;43.78;28.95;;;9.70;99.90;;;;;;5125851;27;20043;-87
2022/03/17 04:16:39;;;;;;;43.22;30.20;;;9.60;99.90;;;;;;5108124;27;20114;-87
2022/03/17 04:19:05;;;;;;;43.92;30.55;;;9.60;99.90;;;;;;5107586;27;20096;-88
2022/03/17 04:21:32;;;;;;;48.63;32.05;;;9.50;99.90;;;;;;5108795;27;20640;-85
2022/03/17 04:23:59;;;;;;;47.25;31.70;;;9.50;99.90;;;;;;5144126;27;20067;-87
2022/03/17 04:26:25;;;;;;;50.08;32.33;;;9.50;99.90;;;;;;5126035;27;20047;-87
2022/03/17 04:28:51;;;;;;;52.47;32.72;;;9.50;99.90;;;;;;5144746;27;20042;-87
2022/03/17 04:31:17;;;;;;;55.15;35.00;;;9.40;99.90;;;;;;5126196;27;20043;-86
2022/03/17 04:33:43;;;;;;;59.50;39.95;;;9.40;99.90;;;;;;5143640;27;20125;-88
2022/03/17 04:36:10;;;;;;;56.63;36.60;;;9.40;99.90;;;;;;5121258;27;20516;-87
2022/03/17 04:38:36;;;;;;;57.03;36.83;;;9.50;99.90;;;;;;5123196;27;20099;-87
2022/03/17 04:41:02;;;;;;;58.28;36.38;;;9.30;99.90;;;;;;5123355;27;20145;-87
2022/03/17 04:43:28;;;;;;;56.03;36.70;;;9.70;99.90;;;;;;5107437;27;20049;-86
2022/03/17 04:45:54;;;;;;;60.08;36.78;;;9.80;99.90;;;;;;5104029;27;20043;-85
2022/03/17 04:48:22;;;;;;;59.55;36.67;;;9.30;99.90;;;;;;5127294;27;20039;-86
2022/03/17 04:50:48;;;;;;;59.40;36.53;;;9.30;99.90;;;;;;5145519;27;20129;-85
2022/03/17 04:53:32;;;;;;;68.22;39.97;;;9.30;99.90;;;;;;5146643;27;20847;-87
2022/03/17 04:56:09;;;;;;;55.75;34.67;;;9.90;99.90;;;;;;5143745;27;20050;-85
2022/03/17 04:58:40;;;;;;;54.95;33.70;;;9.30;99.90;;;;;;5109910;27;20050;-86
2022/03/17 05:01:07;;;;;;;41.35;25.15;;;9.30;99.90;;;;;;5126998;27;20039;-83
2022/03/17 05:03:33;;;;;;;20.95;13.82;;;9.30;99.90;;;;;;5144827;27;20041;-85
2022/03/17 05:06:00;;;;;;;19.95;11.68;;;9.20;99.90;;;;;;5122254;27;20050;-84
2022/03/17 05:08:26;;;;;;;14.90;9.10;;;9.20;99.90;;;;;;5140841;27;20522;-84
2022/03/17 05:10:52;;;;;;;11.90;7.95;;;9.10;99.90;;;;;;5127218;27;20041;-85
2022/03/17 05:13:20;;;;;;;12.48;8.38;;;9.00;99.90;;;;;;5128418;27;20156;-84
2022/03/17 05:15:47;;;;;;;13.05;7.45;;;8.90;99.90;;;;;;5122571;27;20039;-82
2022/03/17 05:18:13;;;;;;;12.82;7.35;;;8.80;99.90;;;;;;5138773;27;20427;-83
2022/03/17 05:20:43;;;;;;;12.32;7.18;;;8.70;99.90;;;;;;5099786;27;20055;-82
2022/03/17 05:23:12;;;;;;;11.20;7.07;;;8.60;99.90;;;;;;5120042;27;20433;-84
2022/03/17 05:25:39;;;;;;;12.07;6.95;;;8.60;99.90;;;;;;5123797;27;20191;-85
2022/03/17 05:28:08;;;;;;;9.32;6.05;;;8.50;99.90;;;;;;5090110;27;20165;-83
2022/03/17 05:30:35;;;;;;;13.90;6.78;;;8.50;99.90;;;;;;5089107;27;20039;-80
2022/03/17 05:33:02;;;;;;;12.70;7.13;;;8.40;99.90;;;;;;5109801;27;20046;-86
2022/03/17 05:35:27;;;;;;;15.35;7.43;;;8.40;99.90;;;;;;5105953;27;20035;-82
2022/03/17 05:37:54;;;;;;;14.68;7.47;;;8.30;99.90;;;;;;5117076;27;20675;-84
2022/03/17 05:40:21;;;;;;;15.15;7.50;;;8.30;99.90;;;;;;5106138;27;20504;-85
2022/03/17 05:42:55;;;;;;;16.10;8.50;;;8.30;99.90;;;;;;5108756;27;20023;-84
2022/03/17 05:45:25;;;;;;;16.77;8.38;;;8.20;99.90;;;;;;5098728;27;20091;-81
2022/03/17 05:47:52;;;;;;;20.20;10.38;;;8.20;99.90;;;;;;5103543;27;20061;-83
2022/03/17 05:50:22;;;;;;;19.27;10.00;;;8.10;99.90;;;;;;5089362;27;20079;-81
2022/03/17 05:52:49;;;;;;;15.55;8.77;;;8.10;99.90;;;;;;5123913;27;20042;-79
2022/03/17 05:55:18;;;;;;;21.15;10.23;;;8.10;99.90;;;;;;5107906;27;20085;-83
2022/03/17 05:57:45;;;;;;;20.23;9.18;;;8.10;99.90;;;;;;5103190;28;20118;-84
2022/03/17 06:00:17;;;;;;;20.15;9.38;;;8.00;99.90;;;;;;5104722;27;20039;-83
2022/03/17 06:02:44;;;;;;;21.75;8.75;;;8.00;99.90;;;;;;5122444;27;20054;-82
2022/03/17 06:05:12;;;;;;;23.15;9.00;;;8.20;99.90;;;;;;5104980;27;20039;-84
2022/03/17 06:07:45;;;;;;;20.90;8.70;;;7.90;99.90;;;;;;5099563;27;20043;-86
2022/03/17 06:10:26;;;;;;;18.63;7.75;;;7.90;99.90;;;;;;5123096;27;20039;-83
2022/03/17 06:12:53;;;;;;;20.90;7.93;;;7.90;99.90;;;;;;5119767;27;20511;-84
2022/03/17 06:15:21;;;;;;;22.67;7.35;;;7.80;99.90;;;;;;5104575;27;20074;-84
2022/03/17 06:17:48;;;;;;;17.08;6.60;;;7.90;99.90;;;;;;5077752;27;20039;-83
2022/03/17 06:20:26;;;;;;;19.42;6.45;;;7.90;99.90;;;;;;5116685;27;20224;-81
2022/03/17 06:22:58;;;;;;;21.58;5.90;;;7.80;99.90;;;;;;5116341;27;20042;-84
2022/03/17 06:25:26;;;;;;;20.08;5.93;;;7.80;99.90;;;;;;5113162;27;20047;-84
2022/03/17 06:27:52;;;;;;;18.85;5.35;;;7.80;99.90;;;;;;5112554;27;20159;-84
2022/03/17 06:30:20;;;;;;;13.73;5.40;;;8.10;99.90;;;;;;5112677;27;20042;-84
2022/03/17 06:32:47;;;;;;;16.65;4.53;;;7.70;99.90;;;;;;5095994;27;20399;-83
2022/03/17 06:35:21;;;;;;;17.50;4.63;;;7.70;99.90;;;;;;5105718;27;20513;-83
2022/03/17 06:37:58;;;;;;;17.48;4.15;;;7.70;99.90;;;;;;5088322;27;20047;-85
2022/03/17 06:40:25;;;;;;;18.27;3.80;;;8.00;99.90;;;;;;5108885;27;20576;-81
2022/03/17 06:42:52;;;;;;;14.32;3.30;;;8.20;99.90;;;;;;5104744;27;20042;-84
2022/03/17 06:45:18;;;;;;;18.35;4.72;;;7.60;99.90;;;;;;5100712;27;20049;-81
2022/03/17 06:47:44;;;;;;;11.93;3.42;;;7.60;99.90;;;;;;5085197;27;20434;-81
2022/03/17 06:50:12;;;;;;;14.77;3.28;;;7.60;99.90;;;;;;5093825;27;20130;-84
2022/03/17 06:52:38;;;;;;;12.93;3.10;;;7.60;99.90;;;;;;5106049;27;20039;-84
2022/03/17 06:55:05;;;;;;;15.20;2.13;;;7.60;99.90;;;;;;5111236;27;20043;-84
2022/03/17 06:57:31;;;;;;;7.50;1.85;;;6.90;99.90;;;;;;5105406;27;20039;-85
2022/03/17 06:59:57;;;;;;;13.27;2.10;;;7.50;99.90;;;;;;5095538;27;20043;-84
2022/03/17 07:02:23;;;;;;;11.45;1.80;;;7.50;99.90;;;;;;5110276;27;20899;-85
2022/03/17 07:04:48;;;;;;;17.73;2.65;;;7.50;99.90;;;;;;5111514;27;20039;-83
2022/03/17 07:07:15;;;;;;;9.82;2.60;;;7.50;99.90;;;;;;5096311;27;20042;-84
2022/03/17 07:09:41;;;;;;;12.90;2.13;;;7.50;99.90;;;;;;5122822;27;20047;-81
2022/03/17 07:12:08;;;;;;;12.52;2.08;;;7.40;99.90;;;;;;5114846;27;20035;-83
2022/03/17 07:14:34;;;;;;;11.85;1.80;;;7.80;99.90;;;;;;5109107;27;20437;-83
2022/03/17 07:17:00;;;;;;;11.57;2.63;;;7.50;99.90;;;;;;5121718;27;20081;-84
2022/03/17 07:19:25;;;;;;;14.75;2.58;;;7.50;99.90;;;;;;5098312;27;20727;-86
2022/03/17 07:21:54;;;;;;;14.73;2.63;;;7.50;99.90;;;;;;5109129;27;20040;-84
2022/03/17 07:24:19;;;;;;;19.00;2.83;;;7.50;99.90;;;;;;5127306;27;20084;-84
2022/03/17 07:26:46;;;;;;;16.63;2.05;;;7.50;99.90;;;;;;5126622;27;20068;-81
2022/03/17 07:29:13;;;;;;;18.02;3.08;;;7.50;99.90;;;;;;5131971;27;20583;-81
2022/03/17 07:31:38;;;;;;;14.35;2.50;;;7.50;99.90;;;;;;5128952;27;20118;-82
2022/03/17 07:34:05;;;;;;;15.27;2.00;;;7.50;99.90;;;;;;5146068;27;20566;-80
2022/03/17 07:36:30;;;;;;;14.88;2.50;;;7.40;99.90;;;;;;5111854;27;20039;-82
2022/03/17 07:38:58;;;;;;;11.40;1.58;;;7.80;99.90;;;;;;5152774;27;20094;-80
2022/03/17 07:41:24;;;;;;;20.45;2.67;;;7.40;99.90;;;;;;5127140;27;20590;-83
2022/03/17 07:43:50;;;;;;;17.83;1.98;;;7.40;99.90;;;;;;5135124;27;20039;-84
2022/03/17 07:46:16;;;;;;;13.93;1.77;;;7.40;99.90;;;;;;5111590;27;20055;-84
2022/03/17 07:48:43;;;;;;;12.52;1.58;;;7.40;99.90;;;;;;5113171;27;20429;-85
2022/03/17 07:51:09;;;;;;;19.50;2.28;;;7.40;99.90;;;;;;5115815;27;20034;-83
2022/03/17 07:53:35;;;;;;;14.88;1.73;;;7.40;99.90;;;;;;5147023;27;20046;-81
2022/03/17 07:56:02;;;;;;;17.30;2.15;;;7.80;99.90;;;;;;5147012;27;20046;-84
2022/03/17 07:58:28;;;;;;;16.38;2.58;;;7.40;99.90;;;;;;5142410;27;20076;-84
2022/03/17 08:00:55;;;;;;;16.23;2.03;;;7.40;99.90;;;;;;5106498;27;20070;-82
2022/03/17 08:03:21;;;;;;;13.27;1.85;;;7.40;99.90;;;;;;5127144;27;20407;-84
2022/03/17 08:05:48;;;;;;;25.85;3.67;;;7.50;99.90;;;;;;5106985;27;20140;-82
2022/03/17 08:08:15;;;;;;;13.35;2.10;;;7.40;99.90;;;;;;5120577;27;20126;-81
2022/03/17 08:10:41;;;;;;;16.70;2.17;;;7.40;99.90;;;;;;5119402;27;20039;-81
2022/03/17 08:13:09;;;;;;;20.25;2.25;;;7.50;99.90;;;;;;5139795;27;20061;-82
2022/03/17 08:15:39;;;;;;;15.50;2.60;;;7.50;99.90;;;;;;5134655;27;20049;-88
2022/03/17 08:18:08;;;;;;;16.35;3.35;;;7.50;99.90;;;;;;5094202;27;20057;-87
2022/03/17 08:20:39;;;;;;;20.40;2.60;;;7.50;99.90;;;;;;5126825;27;20844;-81
2022/03/17 08:23:05;;;;;;;19.02;2.38;;;7.50;99.90;;;;;;5143546;27;20030;-82
2022/03/17 08:25:31;;;;;;;18.08;2.63;;;7.50;99.90;;;;;;5138370;27;20046;-82
2022/03/17 08:27:57;;;;;;;16.48;2.38;;;7.60;99.90;;;;;;5100146;27;20390;-80
2022/03/17 08:30:23;;;;;;;21.20;2.60;;;7.60;99.90;;;;;;5120241;27;20049;-86
2022/03/17 08:32:49;;;;;;;18.63;2.13;;;7.60;99.90;;;;;;5126245;27;20046;-84
2022/03/17 08:35:15;;;;;;;18.20;2.60;;;7.50;99.90;;;;;;5122368;27;20031;-87
2022/03/17 08:37:45;;;;;;;18.10;1.80;;;7.60;99.90;;;;;;5122751;27;20034;-88
2022/03/17 08:40:13;;;;;;;13.55;2.00;;;8.00;99.90;;;;;;5104662;27;20226;-87
2022/03/17 08:42:41;;;;;;;19.98;2.33;;;7.50;99.90;;;;;;5118274;27;20035;-84
2022/03/17 08:50:42;;;;;;;18.08;3.13;;;7.40;99.90;;;;;;5128580;27;20042;-82
2022/03/17 08:53:08;;;;;;;14.90;2.40;;;7.40;99.90;;;;;;5117870;27;20054;-83
2022/03/17 08:55:36;;;;;;;15.90;2.25;;;7.40;99.90;;;;;;5114413;27;20042;-82
2022/03/17 08:58:02;;;;;;;12.23;2.25;;;7.40;99.90;;;;;;5142263;27;20076;-82
2022/03/17 09:00:34;;;;;;;17.55;2.35;;;7.50;99.90;;;;;;5120691;27;20039;-82
2022/03/17 09:03:09;;;;;;;15.68;2.00;;;7.60;99.90;;;;;;5122427;27;20078;-86
2022/03/17 09:05:35;;;;;;;15.75;1.60;;;7.70;99.90;;;;;;5125541;27;20050;-87
2022/03/17 09:08:04;;;;;;;9.98;1.58;;;7.70;99.90;;;;;;5118742;27;20266;-82
2022/03/17 09:10:31;;;;;;;14.27;1.55;;;7.80;99.90;;;;;;5103285;27;20039;-85
2022/03/17 09:12:57;;;;;;;14.75;1.55;;;7.70;99.90;;;;;;5139649;27;20041;-85
2022/03/17 09:15:30;;;;;;;14.50;2.17;;;7.70;99.90;;;;;;5112558;27;20511;-83
2022/03/17 09:17:56;;;;;;;16.33;2.15;;;7.60;99.90;;;;;;5118870;27;20123;-87
2022/03/17 09:20:22;;;;;;;19.70;2.00;;;7.50;99.90;;;;;;5122022;27;20039;-83
2022/03/17 09:22:49;;;;;;;20.70;2.45;;;8.00;99.90;;;;;;5125953;27;20469;-84
2022/03/17 09:25:15;;;;;;;15.65;2.40;;;7.70;99.90;;;;;;5109047;27;20043;-84
2022/03/17 09:27:40;;;;;;;14.60;2.80;;;7.80;99.90;;;;;;5143592;27;20270;-86
2022/03/17 09:30:07;;;;;;;15.27;3.17;;;7.80;99.90;;;;;;5144603;27;20437;-81
2022/03/17 09:32:33;;;;;;;16.63;2.97;;;8.00;99.90;;;;;;5123214;27;20086;-83
2022/03/17 09:34:59;;;;;;;11.05;1.73;;;8.30;99.90;;;;;;5121151;27;20145;-87
2022/03/17 09:37:28;;;;;;;14.60;2.42;;;8.40;99.90;;;;;;5110582;27;20133;-83
2022/03/17 09:39:54;;;;;;;16.70;2.40;;;8.50;99.90;;;;;;5139851;27;20573;-83
2022/03/17 09:42:21;;;;;;;12.95;2.00;;;8.60;99.90;;;;;;5119869;27;20129;-82
2022/03/17 09:44:52;;;;;;;13.77;2.45;;;8.60;99.90;;;;;;5108065;27;20034;-82
2022/03/17 09:47:21;;;;;;;15.63;1.98;;;8.60;99.90;;;;;;5117535;27;20038;-86
2022/03/17 09:49:47;;;;;;;18.75;3.05;;;8.60;99.90;;;;;;5120094;27;20048;-84
2022/03/17 09:52:15;;;;;;;15.52;2.42;;;8.60;99.90;;;;;;5130508;27;20053;-86
2022/03/17 09:54:42;;;;;;;13.45;1.80;;;8.70;99.90;;;;;;5119058;27;20847;-86
2022/03/17 09:57:08;;;;;;;15.07;2.08;;;9.10;99.90;;;;;;5117841;27;20046;-84
2022/03/17 09:59:34;;;;;;;18.55;2.25;;;8.90;99.90;;;;;;5109426;27;20410;-86
2022/03/17 10:02:01;;;;;;;14.07;1.90;;;9.10;99.90;;;;;;5129742;27;20042;-86
2022/03/17 10:04:39;;;;;;;14.15;2.40;;;9.20;99.90;;;;;;5128699;27;20043;-81
2022/03/17 10:07:05;;;;;;;14.43;2.08;;;9.30;99.90;;;;;;5112908;27;20039;-85
2022/03/17 10:09:31;;;;;;;11.52;2.00;;;9.50;99.90;;;;;;5127984;27;20043;-84
2022/03/17 10:12:14;;;;;;;16.38;2.42;;;9.60;99.90;;;;;;5127717;27;20092;-84
2022/03/17 10:14:51;;;;;;;11.45;1.60;;;9.70;99.90;;;;;;5114763;27;20085;-83
2022/03/17 10:17:37;;;;;;;12.48;1.95;;;9.90;99.90;;;;;;5127979;27;20042;-85
2022/03/17 10:20:14;;;;;;;12.20;2.03;;;10.00;99.90;;;;;;5105659;27;20047;-83
2022/03/17 10:22:53;;;;;;;15.55;2.03;;;10.20;99.90;;;;;;5126959;27;20047;-85
2022/03/17 10:25:22;;;;;;;11.32;2.03;;;10.30;99.90;;;;;;5125736;27;20051;-83
2022/03/17 10:27:49;;;;;;;14.10;1.95;;;10.30;99.90;;;;;;5109569;28;20035;-84
2022/03/17 10:30:35;;;;;;;13.10;1.98;;;10.30;99.90;;;;;;5128316;28;20058;-82
2022/03/17 10:33:11;;;;;;;18.95;2.22;;;10.20;99.90;;;;;;5108349;28;20035;-87
2022/03/17 10:35:38;;;;;;;11.65;2.15;;;10.20;99.90;;;;;;5124973;27;20039;-85
2022/03/17 10:38:14;;;;;;;19.63;2.55;;;10.20;99.90;;;;;;5107899;27;20097;-88
2022/03/17 10:40:41;;;;;;;19.50;1.80;;;10.10;99.90;;;;;;5104836;27;20078;-84
2022/03/17 10:43:38;;;;;;;15.10;2.35;;;10.00;99.90;;;;;;5123349;27;20047;-87
2022/03/17 10:46:08;;;;;;;13.43;2.10;;;10.00;99.90;;;;;;5080470;27;20055;-85
2022/03/17 10:48:34;;;;;;;18.27;1.98;;;10.00;99.90;;;;;;5116357;27;20528;-82
2022/03/17 10:51:00;;;;;;;14.55;2.25;;;10.00;99.90;;;;;;5106553;27;20051;-82
2022/03/17 10:53:30;;;;;;;12.90;2.30;;;10.00;99.90;;;;;;5090134;27;20043;-82
2022/03/17 10:56:12;;;;;;;13.90;2.63;;;10.00;99.90;;;;;;5121759;27;20121;-83
2022/03/17 10:58:45;;;;;;;21.92;2.97;;;10.10;99.90;;;;;;5081125;27;20031;-82
2022/03/17 11:01:11;;;;;;;15.10;1.92;;;10.10;99.90;;;;;;5126863;27;20100;-82
2022/03/17 11:03:38;;;;;;;11.93;2.13;;;10.10;99.90;;;;;;5124452;27;20047;-81
2022/03/17 11:06:08;;;;;;;12.70;2.47;;;10.10;99.90;;;;;;5124779;27;20047;-82
2022/03/17 11:08:34;;;;;;;18.38;3.10;;;10.20;99.90;;;;;;5122805;27;20070;-83
2022/03/17 11:10:59;;;;;;;14.82;2.35;;;10.20;99.90;;;;;;5109371;27;20074;-82
2022/03/17 11:13:26;;;;;;;15.38;1.85;;;10.30;99.90;;;;;;5090414;27;20051;-83
2022/03/17 11:16:22;;;;;;;15.00;2.10;;;10.40;99.90;;;;;;5088866;27;20031;-84
2022/03/17 11:18:50;;;;;;;11.60;2.00;;;10.40;99.90;;;;;;5088116;27;20556;-83
2022/03/17 11:21:26;;;;;;;13.98;2.95;;;10.50;99.90;;;;;;5104296;27;20384;-84
2022/03/17 11:24:05;;;;;;;14.38;2.17;;;10.50;99.90;;;;;;5101148;27;20082;-83
2022/03/17 11:26:44;;;;;;;16.70;2.25;;;10.50;99.90;;;;;;5098671;27;20043;-85
2022/03/17 11:29:33;;;;;;;14.60;1.92;;;10.60;99.90;;;;;;5104227;27;20051;-82
2022/03/17 11:32:03;;;;;;;16.05;2.08;;;10.80;99.90;;;;;;5121740;27;20080;-84
2022/03/17 11:34:38;;;;;;;11.52;2.00;;;11.00;99.90;;;;;;5121142;27;20133;-82
2022/03/17 11:37:18;;;;;;;15.50;2.40;;;11.80;99.90;;;;;;5096766;27;20079;-83
2022/03/17 11:39:51;;;;;;;9.55;2.35;;;11.40;99.90;;;;;;5103451;27;20035;-83
2022/03/17 11:42:30;;;;;;;10.25;1.88;;;11.40;99.90;;;;;;5121768;27;20455;-82
2022/03/17 11:45:14;;;;;;;11.65;2.78;;;11.50;99.90;;;;;;5104616;27;20039;-87
2022/03/17 11:47:57;;;;;;;14.82;2.25;;;11.10;99.90;;;;;;5084982;27;20543;-83
2022/03/17 11:50:38;;;;;;;11.88;2.08;;;11.00;99.90;;;;;;5103052;27;20620;-85
2022/03/17 11:53:07;;;;;;;13.70;2.30;;;11.40;99.90;;;;;;5100353;27;20047;-83
2022/03/17 11:55:42;;;;;;;20.30;2.60;;;11.20;99.90;;;;;;5104456;28;20541;-81
2022/03/17 11:58:47;;;;;;;19.52;3.00;;;11.00;99.90;;;;;;5085204;27;20111;-83
2022/03/17 12:01:23;;;;;;;10.77;1.98;;;11.10;99.90;;;;;;5085631;27;20482;-82
2022/03/17 12:03:56;;;;;;;10.35;2.20;;;11.30;99.90;;;;;;5119574;27;20120;-83
2022/03/17 12:06:24;;;;;;;14.40;2.00;;;11.40;99.90;;;;;;5100487;27;20039;-82
2022/03/17 12:09:09;;;;;;;17.15;2.03;;;11.40;99.90;;;;;;5102720;27;20078;-84
2022/03/17 12:11:44;;;;;;;13.07;2.13;;;11.50;99.90;;;;;;5117953;27;20046;-81
2022/03/17 12:16:44;;;;;;;;;;;12.10;99.90;;;;;;5101074;28;20079;-81
2022/03/17 12:19:23;;;;;;;15.80;2.25;;;11.70;99.90;;;;;;5120557;27;20041;-84
2022/03/17 12:21:58;;;;;;;17.70;1.90;;;11.70;99.90;;;;;;5083178;27;20039;-82
2022/03/17 12:24:33;;;;;;;9.63;1.90;;;11.80;99.90;;;;;;5101115;27;20040;-83
2022/03/17 12:27:18;;;;;;;11.52;1.83;;;11.90;99.90;;;;;;5115110;27;20192;-82
2022/03/17 12:29:46;;;;;;;15.60;2.45;;;12.00;99.90;;;;;;5085800;27;20039;-83
2022/03/17 12:32:15;;;;;;;12.85;2.05;;;11.80;99.90;;;;;;5109129;27;20047;-82
2022/03/17 12:34:47;;;;;;;15.88;2.10;;;11.70;99.90;;;;;;5098773;27;20150;-81
2022/03/17 12:37:14;;;;;;;14.57;1.70;;;11.70;99.90;;;;;;5102048;27;20509;-83
2022/03/17 12:39:41;;;;;;;11.98;2.17;;;12.10;99.90;;;;;;5119888;27;20578;-81
2022/03/17 12:42:16;;;;;;;18.40;2.47;;;11.70;99.90;;;;;;5126019;27;20395;-82
2022/03/17 12:44:50;;;;;;;17.42;3.60;;;11.70;99.90;;;;;;5105824;27;20096;-81
2022/03/17 12:47:18;;;;;;;15.00;1.92;;;11.80;99.90;;;;;;5123562;27;20039;-82
2022/03/17 12:49:44;;;;;;;10.43;1.83;;;11.70;99.90;;;;;;5081205;27;20556;-85
2022/03/17 12:52:30;;;;;;;11.88;2.13;;;11.80;99.90;;;;;;5100565;27;20038;-81
2022/03/17 12:55:02;;;;;;;15.48;3.17;;;11.60;99.90;;;;;;5106872;27;20043;-82
2022/03/17 12:57:30;;;;;;;10.18;2.20;;;11.60;99.90;;;;;;5096356;27;20580;-80
2022/03/17 12:59:56;;;;;;;15.25;2.47;;;11.60;99.90;;;;;;5117045;27;20035;-82
2022/03/17 13:02:22;;;;;;;13.35;2.20;;;11.60;99.90;;;;;;5082713;27;20066;-81
2022/03/17 13:04:54;;;;;;;15.40;2.47;;;11.60;99.90;;;;;;5081546;27;20071;-81